sensor_id;sensor_type;location;lat;lon;timestamp;pressure;altitude;pressure_sealevel;temperature;humidity
76611;BME280;65503;48.534;9.062;2023-04-03T00:00:17;97622.66;;;5.68;61.06
76611;BME280;65503;48.534;9.062;2023-04-03T00:02:44;97622.41;;;5.34;62.17
76611;BME280;65503;48.534;9.062;2023-04-03T00:05:10;97628.84;;;5.67;61.58
76611;BME280;65503;48.534;9.062;2023-04-03T00:07:37;97621.38;;;5.64;60.93
76611;BME280;65503;48.534;9.062;2023-04-03T00:10:04;97623.47;;;5.54;60.88
76611;BME280;65503;48.534;9.062;2023-04-03T00:12:30;97620.25;;;5.52;60.52
76611;BME280;65503;48.534;9.062;2023-04-03T00:14:57;97622.22;;;5.21;61.73
76611;BME280;65503;48.534;9.062;2023-04-03T00:17:23;97622.03;;;5.37;61.63
76611;BME280;65503;48.534;9.062;2023-04-03T00:19:50;97618.34;;;5.46;61.05
76611;BME280;65503;48.534;9.062;2023-04-03T00:22:16;97623.00;;;5.80;60.30
76611;BME280;65503;48.534;9.062;2023-04-03T00:24:43;97617.91;;;5.28;61.08
76611;BME280;65503;48.534;9.062;2023-04-03T00:27:09;97617.53;;;5.60;61.15
76611;BME280;65503;48.534;9.062;2023-04-03T00:29:37;97617.88;;;5.72;60.45
76611;BME280;65503;48.534;9.062;2023-04-03T00:32:03;97620.91;;;5.75;59.80
76611;BME280;65503;48.534;9.062;2023-04-03T00:34:30;97617.53;;;5.60;59.99
76611;BME280;65503;48.534;9.062;2023-04-03T00:36:57;97617.91;;;5.57;60.55
76611;BME280;65503;48.534;9.062;2023-04-03T00:39:24;97615.38;;;5.49;60.39
76611;BME280;65503;48.534;9.062;2023-04-03T00:41:50;97608.31;;;5.64;60.25
76611;BME280;65503;48.534;9.062;2023-04-03T00:46:58;97617.34;;;5.62;59.84
76611;BME280;65503;48.534;9.062;2023-04-03T00:49:26;97620.47;;;5.72;59.46
76611;BME280;65503;48.534;9.062;2023-04-03T00:51:53;97621.44;;;5.86;59.49
76611;BME280;65503;48.534;9.062;2023-04-03T00:54:20;97620.75;;;5.92;58.75
76611;BME280;65503;48.534;9.062;2023-04-03T00:56:48;97630.19;;;5.93;58.90
76611;BME280;65503;48.534;9.062;2023-04-03T00:59:17;97620.56;;;5.78;58.75
76611;BME280;65503;48.534;9.062;2023-04-03T01:01:48;97621.28;;;5.72;59.57
76611;BME280;65503;48.534;9.062;2023-04-03T01:07:15;97617.31;;;5.76;59.37
76611;BME280;65503;48.534;9.062;2023-04-03T01:09:44;97618.75;;;5.94;59.08
76611;BME280;65503;48.534;9.062;2023-04-03T01:12:25;97619.13;;;5.91;58.87
76611;BME280;65503;48.534;9.062;2023-04-03T01:14:54;97617.50;;;5.90;58.21
76611;BME280;65503;48.534;9.062;2023-04-03T01:17:34;97620.56;;;5.78;58.74
76611;BME280;65503;48.534;9.062;2023-04-03T01:20:33;97614.44;;;5.71;59.11
76611;BME280;65503;48.534;9.062;2023-04-03T01:28:08;97619.16;;;5.61;59.24
76611;BME280;65503;48.534;9.062;2023-04-03T01:30:39;97615.56;;;5.33;60.23
76611;BME280;65503;48.534;9.062;2023-04-03T01:33:07;97613.66;;;5.41;59.69
76611;BME280;65503;48.534;9.062;2023-04-03T01:35:34;97615.63;;;5.54;59.50
76611;BME280;65503;48.534;9.062;2023-04-03T01:38:00;97614.72;;;5.62;58.99
76611;BME280;65503;48.534;9.062;2023-04-03T01:40:26;97617.22;;;5.70;58.51
76611;BME280;65503;48.534;9.062;2023-04-03T01:42:53;97617.06;;;5.71;59.17
76611;BME280;65503;48.534;9.062;2023-04-03T01:45:19;97628.13;;;5.73;58.53
76611;BME280;65503;48.534;9.062;2023-04-03T01:47:46;97618.63;;;5.51;59.06
76611;BME280;65503;48.534;9.062;2023-04-03T01:50:13;97613.66;;;5.41;59.83
76611;BME280;65503;48.534;9.062;2023-04-03T01:52:39;97619.69;;;5.42;59.76
76611;BME280;65503;48.534;9.062;2023-04-03T01:55:06;97620.50;;;5.28;59.68
76611;BME280;65503;48.534;9.062;2023-04-03T01:57:33;97616.28;;;5.56;59.03
76611;BME280;65503;48.534;9.062;2023-04-03T01:59:59;97618.53;;;5.45;59.23
76611;BME280;65503;48.534;9.062;2023-04-03T02:02:26;97617.00;;;5.50;59.67
76611;BME280;65503;48.534;9.062;2023-04-03T02:04:52;97618.69;;;5.43;59.19
76611;BME280;65503;48.534;9.062;2023-04-03T02:07:19;97615.63;;;5.25;59.64
76611;BME280;65503;48.534;9.062;2023-04-03T02:09:45;97615.91;;;5.30;59.83
76611;BME280;65503;48.534;9.062;2023-04-03T02:12:12;97612.59;;;5.07;60.09
76611;BME280;65503;48.534;9.062;2023-04-03T02:14:38;97614.56;;;5.19;59.89
76611;BME280;65503;48.534;9.062;2023-04-03T02:17:05;97616.44;;;5.11;59.85
76611;BME280;65503;48.534;9.062;2023-04-03T02:19:35;97614.19;;;5.37;59.50
76611;BME280;65503;48.534;9.062;2023-04-03T02:22:05;97627.25;;;5.37;58.42
76611;BME280;65503;48.534;9.062;2023-04-03T02:24:32;97621.31;;;5.43;58.76
76611;BME280;65503;48.534;9.062;2023-04-03T02:26:59;97627.34;;;5.29;58.81
76611;BME280;65503;48.534;9.062;2023-04-03T02:29:25;97619.50;;;5.44;58.60
76611;BME280;65503;48.534;9.062;2023-04-03T02:31:52;97625.34;;;5.31;58.81
76611;BME280;65503;48.534;9.062;2023-04-03T02:34:18;97627.34;;;5.29;58.39
76611;BME280;65503;48.534;9.062;2023-04-03T02:36:44;97618.06;;;5.12;58.45
76611;BME280;65503;48.534;9.062;2023-04-03T02:39:11;97624.38;;;5.32;58.63
76611;BME280;65503;48.534;9.062;2023-04-03T02:41:37;97629.75;;;5.16;58.75
76611;BME280;65503;48.534;9.062;2023-04-03T02:44:06;97630.84;;;5.36;58.07
76611;BME280;65503;48.534;9.062;2023-04-03T02:46:33;97626.91;;;5.40;57.42
76611;BME280;65503;48.534;9.062;2023-04-03T02:48:59;97632.53;;;5.58;57.01
76611;BME280;65503;48.534;9.062;2023-04-03T02:51:26;97636.06;;;5.65;57.06
76611;BME280;65503;48.534;9.062;2023-04-03T02:53:52;97631.94;;;5.56;56.77
76611;BME280;65503;48.534;9.062;2023-04-03T02:56:19;97625.38;;;5.46;57.46
76611;BME280;65503;48.534;9.062;2023-04-03T02:58:46;97631.41;;;5.46;57.16
76611;BME280;65503;48.534;9.062;2023-04-03T03:01:13;97637.34;;;5.40;57.47
76611;BME280;65503;48.534;9.062;2023-04-03T03:03:40;97633.63;;;5.49;57.39
76611;BME280;65503;48.534;9.062;2023-04-03T03:06:09;97637.41;;;5.32;57.72
76611;BME280;65503;48.534;9.062;2023-04-03T03:08:35;97627.78;;;5.47;57.43
76611;BME280;65503;48.534;9.062;2023-04-03T03:11:03;97627.78;;;5.47;57.33
76611;BME280;65503;48.534;9.062;2023-04-03T03:13:30;97624.75;;;5.29;57.61
76611;BME280;65503;48.534;9.062;2023-04-03T03:15:57;97625.81;;;5.34;57.66
76611;BME280;65503;48.534;9.062;2023-04-03T03:18:24;97627.63;;;5.34;57.47
76611;BME280;65503;48.534;9.062;2023-04-03T03:20:55;97625.47;;;5.23;58.07
76611;BME280;65503;48.534;9.062;2023-04-03T03:23:23;97627.09;;;5.24;57.92
76611;BME280;65503;48.534;9.062;2023-04-03T03:26:01;97620.03;;;5.10;58.27
76611;BME280;65503;48.534;9.062;2023-04-03T03:28:28;97622.22;;;5.21;58.47
76611;BME280;65503;48.534;9.062;2023-04-03T03:30:54;97617.81;;;5.21;58.29
76611;BME280;65503;48.534;9.062;2023-04-03T03:33:20;97621.84;;;4.94;58.28
76611;BME280;65503;48.534;9.062;2023-04-03T03:35:47;97622.22;;;5.06;58.67
76611;BME280;65503;48.534;9.062;2023-04-03T03:38:13;97620.59;;;5.05;58.24
76611;BME280;65503;48.534;9.062;2023-04-03T03:40:40;97626.94;;;4.88;58.74
76611;BME280;65503;48.534;9.062;2023-04-03T03:43:07;97616.63;;;4.94;58.40
76611;BME280;65503;48.534;9.062;2023-04-03T03:45:33;97612.56;;;4.92;58.21
76611;BME280;65503;48.534;9.062;2023-04-03T03:48:00;97615.19;;;5.07;58.48
76611;BME280;65503;48.534;9.062;2023-04-03T03:50:27;97617.22;;;4.82;58.96
76611;BME280;65503;48.534;9.062;2023-04-03T03:52:53;97626.88;;;5.11;58.65
76611;BME280;65503;48.534;9.062;2023-04-03T03:55:20;97621.25;;;4.84;58.77
76611;BME280;65503;48.534;9.062;2023-04-03T03:57:46;97617.44;;;4.95;58.73
76611;BME280;65503;48.534;9.062;2023-04-03T04:00:13;97616.25;;;4.97;58.69
76611;BME280;65503;48.534;9.062;2023-04-03T04:02:40;97620.03;;;5.10;58.04
76611;BME280;65503;48.534;9.062;2023-04-03T04:05:06;97622.47;;;5.11;57.82
76611;BME280;65503;48.534;9.062;2023-04-03T04:07:33;97631.34;;;4.87;58.20
76611;BME280;65503;48.534;9.062;2023-04-03T04:09:59;97618.41;;;5.09;58.31
76611;BME280;65503;48.534;9.062;2023-04-03T04:12:26;97628.69;;;5.25;57.79
76611;BME280;65503;48.534;9.062;2023-04-03T04:14:52;97628.88;;;5.23;58.45
76611;BME280;65503;48.534;9.062;2023-04-03T04:17:19;97625.09;;;5.26;58.44
76611;BME280;65503;48.534;9.062;2023-04-03T04:19:45;97626.72;;;5.27;58.15
76611;BME280;65503;48.534;9.062;2023-04-03T04:22:12;97626.91;;;5.40;57.28
76611;BME280;65503;48.534;9.062;2023-04-03T04:24:38;97627.66;;;4.96;58.27
76611;BME280;65503;48.534;9.062;2023-04-03T04:27:05;97630.75;;;5.15;58.10
76611;BME280;65503;48.534;9.062;2023-04-03T04:29:32;97632.84;;;5.34;57.92
76611;BME280;65503;48.534;9.062;2023-04-03T04:32:02;97632.28;;;5.38;57.49
76611;BME280;65503;48.534;9.062;2023-04-03T04:34:29;97627.63;;;5.34;57.51
76611;BME280;65503;48.534;9.062;2023-04-03T04:36:56;97633.19;;;5.31;57.89
76611;BME280;65503;48.534;9.062;2023-04-03T04:39:23;97633.91;;;5.25;58.07
76611;BME280;65503;48.534;9.062;2023-04-03T04:41:49;97626.50;;;5.14;58.00
76611;BME280;65503;48.534;9.062;2023-04-03T04:44:16;97638.38;;;5.02;58.97
76611;BME280;65503;48.534;9.062;2023-04-03T04:46:43;97632.03;;;4.81;59.16
76611;BME280;65503;48.534;9.062;2023-04-03T04:49:09;97629.84;;;5.08;58.78
76611;BME280;65503;48.534;9.062;2023-04-03T04:51:35;97635.63;;;5.32;57.68
76611;BME280;65503;48.534;9.062;2023-04-03T04:54:16;97638.97;;;5.41;57.67
76611;BME280;65503;48.534;9.062;2023-04-03T04:56:43;97643.63;;;5.31;56.93
76611;BME280;65503;48.534;9.062;2023-04-03T04:59:09;97638.31;;;5.24;57.37
76611;BME280;65503;48.534;9.062;2023-04-03T05:01:36;97648.50;;;5.34;57.12
76611;BME280;65503;48.534;9.062;2023-04-03T05:04:03;97646.16;;;5.39;56.97
76611;BME280;65503;48.534;9.062;2023-04-03T05:06:30;97646.34;;;5.52;56.54
76611;BME280;65503;48.534;9.062;2023-04-03T05:08:58;97643.81;;;5.44;57.18
76611;BME280;65503;48.534;9.062;2023-04-03T05:11:24;97648.28;;;5.35;56.37
76611;BME280;65503;48.534;9.062;2023-04-03T05:13:52;97645.44;;;5.45;56.84
76611;BME280;65503;48.534;9.062;2023-04-03T05:16:18;97650.19;;;5.56;55.67
76611;BME280;65503;48.534;9.062;2023-04-03T05:18:45;97647.22;;;5.59;55.77
76611;BME280;65503;48.534;9.062;2023-04-03T05:21:11;97655.50;;;5.48;55.43
76611;BME280;65503;48.534;9.062;2023-04-03T05:23:38;97648.13;;;5.52;55.09
76611;BME280;65503;48.534;9.062;2023-04-03T05:26:04;97661.44;;;5.42;55.20
76611;BME280;65503;48.534;9.062;2023-04-03T05:28:31;97661.28;;;5.29;55.31
76611;BME280;65503;48.534;9.062;2023-04-03T05:30:58;97660.72;;;5.48;54.95
76611;BME280;65503;48.534;9.062;2023-04-03T05:33:25;97658.38;;;5.53;53.59
76611;BME280;65503;48.534;9.062;2023-04-03T05:35:53;97657.66;;;5.45;53.20
76611;BME280;65503;48.534;9.062;2023-04-03T05:38:20;97660.00;;;5.54;53.38
76611;BME280;65503;48.534;9.062;2023-04-03T05:40:46;97659.75;;;5.64;53.42
76611;BME280;65503;48.534;9.062;2023-04-03T05:43:13;97659.81;;;5.70;53.13
76611;BME280;65503;48.534;9.062;2023-04-03T05:45:39;97662.69;;;5.75;52.66
76611;BME280;65503;48.534;9.062;2023-04-03T05:48:07;97660.91;;;5.91;52.48
76611;BME280;65503;48.534;9.062;2023-04-03T05:50:34;97670.25;;;6.00;51.79
76611;BME280;65503;48.534;9.062;2023-04-03T05:53:01;97670.25;;;6.00;51.97
76611;BME280;65503;48.534;9.062;2023-04-03T05:55:28;97670.72;;;5.74;50.64
76611;BME280;65503;48.534;9.062;2023-04-03T05:57:55;97676.44;;;5.25;52.59
76611;BME280;65503;48.534;9.062;2023-04-03T06:00:21;97670.97;;;5.64;52.07
76611;BME280;65503;48.534;9.062;2023-04-03T06:02:48;97667.19;;;5.81;51.28
76611;BME280;65503;48.534;9.062;2023-04-03T06:05:16;97670.25;;;6.00;50.27
76611;BME280;65503;48.534;9.062;2023-04-03T06:07:42;97675.56;;;6.06;50.13
76611;BME280;65503;48.534;9.062;2023-04-03T06:10:11;97668.47;;;5.86;49.18
76611;BME280;65503;48.534;9.062;2023-04-03T06:12:38;97670.91;;;6.02;49.73
76611;BME280;65503;48.534;9.062;2023-04-03T06:15:05;97675.72;;;6.19;49.30
76611;BME280;65503;48.534;9.062;2023-04-03T06:17:31;97673.59;;;6.08;49.47
76611;BME280;65503;48.534;9.062;2023-04-03T06:19:58;97680.88;;;6.13;49.05
76611;BME280;65503;48.534;9.062;2023-04-03T06:22:24;97674.50;;;5.57;47.53
76611;BME280;65503;48.534;9.062;2023-04-03T06:24:52;97681.06;;;5.67;47.94
76611;BME280;65503;48.534;9.062;2023-04-03T06:27:18;97676.03;;;5.51;48.96
76611;BME280;65503;48.534;9.062;2023-04-03T06:29:45;97681.25;;;5.51;49.45
76611;BME280;65503;48.534;9.062;2023-04-03T06:32:11;97685.91;;;5.70;49.09
76611;BME280;65503;48.534;9.062;2023-04-03T06:34:38;97680.69;;;5.70;49.17
76611;BME280;65503;48.534;9.062;2023-04-03T06:37:05;97678.66;;;5.51;49.94
76611;BME280;65503;48.534;9.062;2023-04-03T06:39:31;97685.47;;;5.67;50.61
76611;BME280;65503;48.534;9.062;2023-04-03T06:41:58;97682.31;;;6.01;49.97
76611;BME280;65503;48.534;9.062;2023-04-03T06:44:25;97690.06;;;5.79;50.30
76611;BME280;65503;48.534;9.062;2023-04-03T06:46:51;97690.63;;;5.90;50.24
76611;BME280;65503;48.534;9.062;2023-04-03T06:49:18;97691.56;;;6.18;49.68
76611;BME280;65503;48.534;9.062;2023-04-03T06:51:45;97694.03;;;6.05;49.80
76611;BME280;65503;48.534;9.062;2023-04-03T06:54:12;97701.97;;;6.33;49.46
76611;BME280;65503;48.534;9.062;2023-04-03T06:56:39;97701.56;;;6.29;49.80
76611;BME280;65503;48.534;9.062;2023-04-03T06:59:05;97702.78;;;6.33;49.78
76611;BME280;65503;48.534;9.062;2023-04-03T07:01:32;97707.44;;;6.52;49.67
76611;BME280;65503;48.534;9.062;2023-04-03T07:03:58;97698.81;;;5.87;50.78
76611;BME280;65503;48.534;9.062;2023-04-03T07:06:25;97695.56;;;6.14;50.69
76611;BME280;65503;48.534;9.062;2023-04-03T07:08:53;97704.31;;;6.42;50.10
76611;BME280;65503;48.534;9.062;2023-04-03T07:11:20;97707.28;;;6.39;49.97
76611;BME280;65503;48.534;9.062;2023-04-03T07:13:46;97700.72;;;6.64;49.99
76611;BME280;65503;48.534;9.062;2023-04-03T07:16:13;97709.41;;;6.50;49.24
76611;BME280;65503;48.534;9.062;2023-04-03T07:18:39;97704.63;;;6.18;49.40
76611;BME280;65503;48.534;9.062;2023-04-03T07:21:06;97706.88;;;6.21;49.01
76611;BME280;65503;48.534;9.062;2023-04-03T07:23:33;97700.53;;;6.09;50.19
76611;BME280;65503;48.534;9.062;2023-04-03T07:25:59;97711.19;;;6.64;49.25
76611;BME280;65503;48.534;9.062;2023-04-03T07:28:26;97707.31;;;6.82;48.07
76611;BME280;65503;48.534;9.062;2023-04-03T07:30:59;97715.53;;;7.00;48.20
76611;BME280;65503;48.534;9.062;2023-04-03T07:33:26;97718.38;;;7.26;48.31
76611;BME280;65503;48.534;9.062;2023-04-03T07:35:53;97710.28;;;7.49;45.96
76611;BME280;65503;48.534;9.062;2023-04-03T07:38:20;97709.94;;;7.59;46.33
76611;BME280;65503;48.534;9.062;2023-04-03T07:40:48;97705.75;;;8.05;45.62
76611;BME280;65503;48.534;9.062;2023-04-03T07:43:15;97719.84;;;8.04;44.04
76611;BME280;65503;48.534;9.062;2023-04-03T07:45:42;97727.13;;;8.09;45.52
76611;BME280;65503;48.534;9.062;2023-04-03T07:48:10;97722.50;;;7.70;45.39
76611;BME280;65503;48.534;9.062;2023-04-03T07:50:37;97711.25;;;7.76;45.36
76611;BME280;65503;48.534;9.062;2023-04-03T07:53:03;97722.69;;;8.09;45.06
76611;BME280;65503;48.534;9.062;2023-04-03T07:55:31;97711.94;;;8.32;44.13
76611;BME280;65503;48.534;9.062;2023-04-03T07:58:00;97718.50;;;8.69;43.56
76611;BME280;65503;48.534;9.062;2023-04-03T08:00:26;97715.63;;;8.51;44.20
76611;BME280;65503;48.534;9.062;2023-04-03T08:02:53;97723.97;;;8.20;44.58
76611;BME280;65503;48.534;9.062;2023-04-03T08:05:20;97720.66;;;8.46;44.84
76611;BME280;65503;48.534;9.062;2023-04-03T08:07:47;97723.78;;;8.82;43.20
76611;BME280;65503;48.534;9.062;2023-04-03T08:10:14;97728.25;;;9.08;44.17
76611;BME280;65503;48.534;9.062;2023-04-03T08:12:41;97732.31;;;9.57;42.75
76611;BME280;65503;48.534;9.062;2023-04-03T08:15:08;97731.47;;;8.90;43.71
76611;BME280;65503;48.534;9.062;2023-04-03T08:17:35;97735.88;;;8.83;44.25
76611;BME280;65503;48.534;9.062;2023-04-03T08:20:04;97739.84;;;7.71;45.67
76611;BME280;65503;48.534;9.062;2023-04-03T08:22:31;97737.09;;;8.26;46.04
76611;BME280;65503;48.534;9.062;2023-04-03T08:24:57;97733.03;;;8.71;44.67
76611;BME280;65503;48.534;9.062;2023-04-03T08:27:25;97745.44;;;9.10;43.75
76611;BME280;65503;48.534;9.062;2023-04-03T08:29:54;97738.44;;;8.57;44.72
76611;BME280;65503;48.534;9.062;2023-04-03T08:32:20;97728.22;;;7.80;47.49
76611;BME280;65503;48.534;9.062;2023-04-03T08:34:47;97740.00;;;7.14;47.51
76611;BME280;65503;48.534;9.062;2023-04-03T08:37:14;97734.81;;;6.56;50.41
76611;BME280;65503;48.534;9.062;2023-04-03T08:39:42;97748.69;;;6.93;48.69
76611;BME280;65503;48.534;9.062;2023-04-03T08:45:39;97746.53;;;7.45;48.43
76611;BME280;65503;48.534;9.062;2023-04-03T08:48:18;97744.56;;;7.05;48.28
76611;BME280;65503;48.534;9.062;2023-04-03T08:50:49;97743.13;;;6.81;48.60
76611;BME280;65503;48.534;9.062;2023-04-03T08:53:21;97751.38;;;7.48;47.12
76611;BME280;65503;48.534;9.062;2023-04-03T08:55:50;97753.09;;;7.69;46.32
76611;BME280;65503;48.534;9.062;2023-04-03T08:58:30;97749.19;;;7.80;45.97
76611;BME280;65503;48.534;9.062;2023-04-03T09:01:03;97755.06;;;8.29;46.22
76611;BME280;65503;48.534;9.062;2023-04-03T09:03:32;97762.28;;;8.14;45.51
76611;BME280;65503;48.534;9.062;2023-04-03T09:06:20;97752.31;;;8.44;45.52
76611;BME280;65503;48.534;9.062;2023-04-03T09:09:10;97754.09;;;7.96;45.84
76611;BME280;65503;48.534;9.062;2023-04-03T09:11:57;97747.31;;;8.08;45.92
76611;BME280;65503;48.534;9.062;2023-04-03T09:14:36;97755.38;;;7.44;47.02
76611;BME280;65503;48.534;9.062;2023-04-03T09:17:14;97761.63;;;7.22;47.79
76611;BME280;65503;48.534;9.062;2023-04-03T09:19:58;97748.72;;;7.76;47.90
76611;BME280;65503;48.534;9.062;2023-04-03T09:22:32;97741.00;;;8.31;45.39
76611;BME280;65503;48.534;9.062;2023-04-03T09:25:29;97747.28;;;8.43;44.87
76611;BME280;65503;48.534;9.062;2023-04-03T09:28:00;97742.78;;;8.97;43.15
76611;BME280;65503;48.534;9.062;2023-04-03T09:30:28;97752.41;;;8.77;43.85
76611;BME280;65503;48.534;9.062;2023-04-03T09:32:56;97751.28;;;9.26;43.17
76611;BME280;65503;48.534;9.062;2023-04-03T09:35:25;97747.25;;;9.17;42.36
76611;BME280;65503;48.534;9.062;2023-04-03T09:41:23;97744.63;;;9.10;42.04
76611;BME280;65503;48.534;9.062;2023-04-03T09:43:37;97745.06;;;8.46;44.20
76611;BME280;65503;48.534;9.062;2023-04-03T09:46:33;97745.94;;;8.60;44.70
76611;BME280;65503;48.534;9.062;2023-04-03T09:49:03;97737.41;;;8.45;43.49
76611;BME280;65503;48.534;9.062;2023-04-03T09:51:36;97756.91;;;7.95;43.51
76611;BME280;65503;48.534;9.062;2023-04-03T09:54:37;97744.38;;;7.90;45.11
76611;BME280;65503;48.534;9.062;2023-04-03T09:57:09;97748.59;;;8.25;43.82
76611;BME280;65503;48.534;9.062;2023-04-03T10:04:42;97747.22;;;9.69;42.00
76611;BME280;65503;48.534;9.062;2023-04-03T10:07:29;97748.47;;;9.60;41.63
76611;BME280;65503;48.534;9.062;2023-04-03T10:09:57;97746.00;;;9.78;41.65
76611;BME280;65503;48.534;9.062;2023-04-03T10:12:24;97740.75;;;9.78;41.43
76611;BME280;65503;48.534;9.062;2023-04-03T10:14:55;97741.38;;;9.15;41.72
76611;BME280;65503;48.534;9.062;2023-04-03T10:17:28;97742.38;;;7.92;43.22
76611;BME280;65503;48.534;9.062;2023-04-03T10:20:10;97744.06;;;8.06;42.92
76611;BME280;65503;48.534;9.062;2023-04-03T10:23:00;97726.59;;;8.74;41.60
76611;BME280;65503;48.534;9.062;2023-04-03T10:28:35;97738.09;;;9.91;38.99
76611;BME280;65503;48.534;9.062;2023-04-03T10:37:12;97730.69;;;9.36;39.64
76611;BME280;65503;48.534;9.062;2023-04-03T10:42:45;97724.22;;;9.45;39.99
76611;BME280;65503;48.534;9.062;2023-04-03T10:45:31;97733.69;;;9.72;39.45
76611;BME280;65503;48.534;9.062;2023-04-03T10:48:07;97726.63;;;9.53;39.08
76611;BME280;65503;48.534;9.062;2023-04-03T10:50:44;97733.03;;;8.65;40.60
76611;BME280;65503;48.534;9.062;2023-04-03T10:56:31;97730.41;;;8.65;40.53
76611;BME280;65503;48.534;9.062;2023-04-03T11:01:38;97732.03;;;8.18;40.73
76611;BME280;65503;48.534;9.062;2023-04-03T11:04:08;97734.13;;;7.95;40.47
76611;BME280;65503;48.534;9.062;2023-04-03T11:06:45;97722.13;;;7.73;41.62
76611;BME280;65503;48.534;9.062;2023-04-03T11:09:22;97722.22;;;8.34;40.95
76611;BME280;65503;48.534;9.062;2023-04-03T11:11:55;97727.41;;;7.86;41.07
76611;BME280;65503;48.534;9.062;2023-04-03T11:14:26;97719.25;;;8.02;41.67
76611;BME280;65503;48.534;9.062;2023-04-03T11:22:22;97723.38;;;8.85;39.30
76611;BME280;65503;48.534;9.062;2023-04-03T11:25:23;97715.31;;;8.93;39.18
76611;BME280;65503;48.534;9.062;2023-04-03T11:28:02;97714.91;;;9.23;39.03
76611;BME280;65503;48.534;9.062;2023-04-03T11:30:49;97718.97;;;9.05;37.73
76611;BME280;65503;48.534;9.062;2023-04-03T11:33:32;97718.88;;;8.66;38.32
76611;BME280;65503;48.534;9.062;2023-04-03T11:36:10;97711.03;;;8.12;39.93
76611;BME280;65503;48.534;9.062;2023-04-03T11:38:55;97718.56;;;7.87;40.63
76611;BME280;65503;48.534;9.062;2023-04-03T11:41:30;97718.19;;;7.90;40.11
76611;BME280;65503;48.534;9.062;2023-04-03T11:44:14;97715.59;;;8.38;39.87
76611;BME280;65503;48.534;9.062;2023-04-03T11:46:58;97717.63;;;8.42;39.02
76611;BME280;65503;48.534;9.062;2023-04-03T11:49:57;97720.44;;;8.41;38.19
76611;BME280;65503;48.534;9.062;2023-04-03T11:58:03;97704.47;;;7.54;40.96
76611;BME280;65503;48.534;9.062;2023-04-03T12:00:50;97701.47;;;7.91;40.98
76611;BME280;65503;48.534;9.062;2023-04-03T12:05:52;97696.94;;;9.06;41.23
76611;BME280;65503;48.534;9.062;2023-04-03T12:14:01;97697.88;;;9.84;38.07
76611;BME280;65503;48.534;9.062;2023-04-03T12:16:33;97695.09;;;9.66;39.40
76611;BME280;65503;48.534;9.062;2023-04-03T12:19:24;97697.31;;;9.63;39.00
76611;BME280;65503;48.534;9.062;2023-04-03T12:22:07;97690.69;;;9.34;38.37
76611;BME280;65503;48.534;9.062;2023-04-03T12:24:36;97691.38;;;9.87;37.97
76611;BME280;65503;48.534;9.062;2023-04-03T12:27:09;97693.72;;;9.37;38.56
76611;BME280;65503;48.534;9.062;2023-04-03T12:29:47;97691.50;;;9.28;38.62
76611;BME280;65503;48.534;9.062;2023-04-03T12:38:31;97689.63;;;8.56;39.23
76611;BME280;65503;48.534;9.062;2023-04-03T12:41:25;97686.22;;;8.75;38.78
76611;BME280;65503;48.534;9.062;2023-04-03T12:46:45;97689.47;;;9.30;37.95
76611;BME280;65503;48.534;9.062;2023-04-03T12:49:38;97685.03;;;9.50;37.79
76611;BME280;65503;48.534;9.062;2023-04-03T12:52:18;97681.00;;;9.15;38.00
76611;BME280;65503;48.534;9.062;2023-04-03T12:54:46;97687.84;;;8.89;37.99
76611;BME280;65503;48.534;9.062;2023-04-03T12:59:43;97682.00;;;8.13;39.52
76611;BME280;65503;48.534;9.062;2023-04-03T13:02:27;97667.25;;;8.80;39.59
76611;BME280;65503;48.534;9.062;2023-04-03T13:04:57;97678.16;;;8.83;38.51
76611;BME280;65503;48.534;9.062;2023-04-03T13:07:32;97668.88;;;8.74;39.08
76611;BME280;65503;48.534;9.062;2023-04-03T13:10:09;97671.72;;;9.05;38.39
76611;BME280;65503;48.534;9.062;2023-04-03T13:15:24;97675.22;;;7.84;39.63
76611;BME280;65503;48.534;9.062;2023-04-03T13:17:53;97667.38;;;8.39;39.65
76611;BME280;65503;48.534;9.062;2023-04-03T13:20:25;97678.38;;;9.01;38.62
76611;BME280;65503;48.534;9.062;2023-04-03T13:23:02;97676.16;;;8.85;38.34
76611;BME280;65503;48.534;9.062;2023-04-03T13:25:33;97680.78;;;9.49;38.63
76611;BME280;65503;48.534;9.062;2023-04-03T13:28:00;97678.94;;;8.77;38.30
76611;BME280;65503;48.534;9.062;2023-04-03T13:30:40;97678.38;;;9.15;38.51
76611;BME280;65503;48.534;9.062;2023-04-03T13:33:25;97674.47;;;9.63;36.82
76611;BME280;65503;48.534;9.062;2023-04-03T13:35:56;97679.72;;;9.63;37.58
76611;BME280;65503;48.534;9.062;2023-04-03T13:38:26;97678.53;;;9.59;37.58
76611;BME280;65503;48.534;9.062;2023-04-03T13:40:58;97676.81;;;9.91;36.15
76611;BME280;65503;48.534;9.062;2023-04-03T13:43:28;97668.50;;;9.03;38.86
76611;BME280;65503;48.534;9.062;2023-04-03T13:48:43;97674.56;;;9.10;38.18
76611;BME280;65503;48.534;9.062;2023-04-03T13:53:59;97666.66;;;9.30;37.16
76611;BME280;65503;48.534;9.062;2023-04-03T13:56:39;97668.38;;;9.69;37.01
76611;BME280;65503;48.534;9.062;2023-04-03T14:04:33;97667.44;;;9.18;36.79
76611;BME280;65503;48.534;9.062;2023-04-03T14:07:15;97660.41;;;8.92;37.45
76611;BME280;65503;48.534;9.062;2023-04-03T14:09:42;97663.59;;;8.61;37.82
76611;BME280;65503;48.534;9.062;2023-04-03T14:12:18;97664.25;;;9.02;37.61
76611;BME280;65503;48.534;9.062;2023-04-03T14:14:58;97669.25;;;8.58;38.06
76611;BME280;65503;48.534;9.062;2023-04-03T14:17:26;97668.44;;;8.57;38.42
76611;BME280;65503;48.534;9.062;2023-04-03T14:19:55;97660.78;;;8.95;37.98
76611;BME280;65503;48.534;9.062;2023-04-03T14:22:31;97649.88;;;9.25;37.51
76611;BME280;65503;48.534;9.062;2023-04-03T14:24:59;97666.88;;;9.16;36.88
76611;BME280;65503;48.534;9.062;2023-04-03T14:27:28;97654.72;;;9.34;37.46
76611;BME280;65503;48.534;9.062;2023-04-03T14:29:57;97646.72;;;9.80;35.46
76611;BME280;65503;48.534;9.062;2023-04-03T14:32:25;97652.22;;;9.72;35.41
76611;BME280;65503;48.534;9.062;2023-04-03T14:34:51;97653.56;;;9.10;36.88
76611;BME280;65503;48.534;9.062;2023-04-03T14:37:22;97649.50;;;9.15;37.02
76611;BME280;65503;48.534;9.062;2023-04-03T14:39:51;97649.88;;;9.18;37.10
76611;BME280;65503;48.534;9.062;2023-04-03T14:42:26;97653.13;;;9.27;36.41
76611;BME280;65503;48.534;9.062;2023-04-03T14:44:53;97641.38;;;9.49;36.13
76611;BME280;65503;48.534;9.062;2023-04-03T14:47:23;97646.28;;;8.99;36.17
76611;BME280;65503;48.534;9.062;2023-04-03T14:50:01;97637.41;;;8.87;37.90